createdAt,value
2023-04-22T00:02:24.456Z,2.25
2023-04-22T00:04:51.691Z,2.42
2023-04-22T00:07:18.905Z,2.65
2023-04-22T00:09:46.001Z,2.53
2023-04-22T00:12:12.833Z,2.75
2023-04-22T00:14:39.670Z,2.60
2023-04-22T00:17:07.177Z,2.55
2023-04-22T00:19:34.814Z,2.70
2023-04-22T00:22:02.126Z,2.60
2023-04-22T00:24:29.451Z,2.72
2023-04-22T00:26:56.625Z,2.90
2023-04-22T00:29:23.417Z,2.80
2023-04-22T00:31:50.372Z,2.60
2023-04-22T00:34:19.981Z,2.63
2023-04-22T00:36:46.845Z,2.58
2023-04-22T00:39:14.020Z,2.70
2023-04-22T00:41:40.982Z,2.50
2023-04-22T00:44:11.660Z,2.63
2023-04-22T00:46:40.131Z,2.53
2023-04-22T00:49:08.032Z,2.35
2023-04-22T00:51:34.843Z,2.60
2023-04-22T00:54:03.445Z,2.47
2023-04-22T00:56:31.218Z,2.65
2023-04-22T00:58:58.280Z,2.78
2023-04-22T01:01:25.165Z,2.50
2023-04-22T01:03:53.257Z,2.50
2023-04-22T01:06:20.682Z,2.78
2023-04-22T01:08:48.445Z,2.60
2023-04-22T01:11:15.506Z,2.40
2023-04-22T01:13:42.615Z,2.70
2023-04-22T01:16:10.030Z,2.35
2023-04-22T01:18:37.059Z,2.70
2023-04-22T01:21:04.309Z,2.58
2023-04-22T01:23:31.373Z,2.65
2023-04-22T01:25:58.130Z,2.60
2023-04-22T01:28:26.101Z,2.83
2023-04-22T01:30:54.142Z,2.33
2023-04-22T01:33:20.969Z,2.58
2023-04-22T01:35:47.768Z,2.85
2023-04-22T01:38:14.631Z,2.50
2023-04-22T01:40:41.385Z,2.40
2023-04-22T01:43:08.240Z,2.70
2023-04-22T01:45:35.197Z,2.60
2023-04-22T01:48:02.211Z,2.58
2023-04-22T01:50:28.996Z,2.60
2023-04-22T01:52:56.387Z,2.58
2023-04-22T01:55:23.293Z,2.60
2023-04-22T01:57:50.131Z,2.78
2023-04-22T02:00:18.005Z,2.40
2023-04-22T02:02:47.617Z,2.40
2023-04-22T02:05:14.791Z,2.63
2023-04-22T02:07:41.729Z,2.65
2023-04-22T02:10:09.708Z,2.50
2023-04-22T02:12:36.588Z,2.55
2023-04-22T02:15:03.772Z,2.58
2023-04-22T02:17:30.571Z,2.42
2023-04-22T02:19:57.422Z,2.50
2023-04-22T02:22:24.439Z,2.50
2023-04-22T02:24:51.324Z,2.70
2023-04-22T02:27:18.046Z,2.55
2023-04-22T02:29:48.364Z,2.50
2023-04-22T02:32:17.513Z,2.60
2023-04-22T02:34:44.355Z,2.30
2023-04-22T02:37:11.163Z,2.55
2023-04-22T02:39:38.381Z,2.42
2023-04-22T02:42:06.468Z,2.30
2023-04-22T02:44:33.389Z,2.50
2023-04-22T02:47:00.460Z,2.78
2023-04-22T02:49:27.345Z,2.80
2023-04-22T02:51:54.229Z,2.90
2023-04-22T02:54:21.042Z,2.45
2023-04-22T02:56:47.844Z,2.42
2023-04-22T02:59:14.681Z,2.40
2023-04-22T03:01:42.449Z,2.47
2023-04-22T03:04:14.289Z,2.40
2023-04-22T03:06:41.421Z,2.58
2023-04-22T03:09:08.513Z,2.35
2023-04-22T03:11:35.338Z,2.60
2023-04-22T03:14:03.459Z,2.40
2023-04-22T03:16:30.582Z,2.50
2023-04-22T03:18:59.880Z,2.47
2023-04-22T03:21:29.072Z,2.53
2023-04-22T03:23:55.824Z,2.65
2023-04-22T03:26:23.817Z,2.42
2023-04-22T03:28:50.721Z,2.78
2023-04-22T03:31:18.106Z,2.55
2023-04-22T03:33:46.303Z,2.53
2023-04-22T03:36:22.971Z,2.80
2023-04-22T03:38:50.049Z,2.50
2023-04-22T03:41:17.348Z,3.03
2023-04-22T03:43:47.162Z,2.70
2023-04-22T03:46:14.773Z,2.70
2023-04-22T03:48:47.974Z,2.78
2023-04-22T03:51:24.060Z,2.78
2023-04-22T03:53:51.442Z,3.08
2023-04-22T03:58:49.511Z,3.20
2023-04-22T04:01:16.784Z,2.88
2023-04-22T04:03:48.178Z,3.00
2023-04-22T04:06:17.010Z,2.95
2023-04-22T04:08:43.752Z,3.10
2023-04-22T04:11:11.797Z,3.25
2023-04-22T04:13:38.951Z,3.30
2023-04-22T04:16:19.193Z,3.20
2023-04-22T04:18:51.652Z,3.08
2023-04-22T04:21:20.643Z,3.28
2023-04-22T04:23:50.800Z,3.47
2023-04-22T04:26:22.184Z,3.70
2023-04-22T04:28:53.701Z,3.28
2023-04-22T04:31:21.448Z,3.40
2023-04-22T04:33:48.299Z,3.70
2023-04-22T04:36:15.369Z,3.67
2023-04-22T04:38:43.119Z,3.65
2023-04-22T04:41:10.850Z,4.00
2023-04-22T04:43:38.771Z,3.63
2023-04-22T04:46:22.532Z,3.72
2023-04-22T04:48:50.744Z,3.70
2023-04-22T04:51:20.375Z,3.92
2023-04-22T04:53:54.862Z,3.65
2023-04-22T04:56:22.326Z,4.07
2023-04-22T04:58:49.914Z,3.72
2023-04-22T05:01:20.267Z,3.80
2023-04-22T05:03:48.490Z,3.83
2023-04-22T05:08:49.316Z,4.38
2023-04-22T05:11:16.297Z,4.00
2023-04-22T05:13:46.515Z,3.70
2023-04-22T05:16:19.294Z,3.78
2023-04-22T05:18:46.579Z,4.15
2023-04-22T05:21:16.069Z,4.75
2023-04-22T05:23:44.256Z,4.20
2023-04-22T05:26:11.424Z,4.13
2023-04-22T05:28:41.234Z,4.32
2023-04-22T05:31:08.210Z,4.40
2023-04-22T05:33:35.423Z,4.35
2023-04-22T05:36:02.245Z,4.30
2023-04-22T05:38:29.581Z,3.97
2023-04-22T05:40:56.826Z,4.22
2023-04-22T05:43:24.772Z,4.40
2023-04-22T05:45:59.934Z,4.00
2023-04-22T05:48:27.045Z,4.00
2023-04-22T05:50:59.980Z,3.80
2023-04-22T05:53:29.308Z,3.97
2023-04-22T05:55:59.351Z,4.15
2023-04-22T05:58:27.021Z,3.92
2023-04-22T06:00:55.310Z,4.35
2023-04-22T06:03:40.943Z,3.97
2023-04-22T06:06:08.543Z,3.60
2023-04-22T06:08:35.530Z,3.90
2023-04-22T06:11:02.358Z,4.28
2023-04-22T06:13:32.968Z,4.13
2023-04-22T06:16:01.003Z,4.20
2023-04-22T06:18:28.925Z,4.05
2023-04-22T06:20:56.363Z,4.50
2023-04-22T06:23:23.238Z,4.20
2023-04-22T06:25:50.082Z,12.52
2023-04-22T06:28:17.692Z,15.57
2023-04-22T06:30:46.198Z,12.80
2023-04-22T06:33:13.538Z,13.65
2023-04-22T06:35:40.544Z,11.52
2023-04-22T06:38:07.510Z,10.90
2023-04-22T06:40:43.540Z,11.07
2023-04-22T06:43:19.291Z,10.55
2023-04-22T06:46:04.769Z,10.20
2023-04-22T06:48:52.293Z,10.15
2023-04-22T06:51:25.554Z,10.32
2023-04-22T06:53:54.359Z,10.57
2023-04-22T06:56:22.590Z,9.95
2023-04-22T06:58:50.149Z,9.30
2023-04-22T07:01:17.518Z,8.50
2023-04-22T07:03:44.730Z,8.73
2023-04-22T07:06:14.480Z,8.65
2023-04-22T07:08:41.928Z,8.43
2023-04-22T07:11:10.647Z,8.40
2023-04-22T07:13:47.562Z,8.80
2023-04-22T07:16:14.475Z,8.57
2023-04-22T07:18:41.287Z,8.45
2023-04-22T07:21:08.379Z,8.70
2023-04-22T07:23:35.431Z,8.77
2023-04-22T07:26:02.648Z,8.57
2023-04-22T07:28:30.129Z,8.93
2023-04-22T07:30:57.241Z,9.80
2023-04-22T07:33:24.340Z,10.25
2023-04-22T07:35:51.527Z,11.13
2023-04-22T07:38:18.614Z,10.95
2023-04-22T07:40:45.876Z,11.13
2023-04-22T07:43:12.915Z,10.93
2023-04-22T07:45:40.174Z,11.30
2023-04-22T07:48:07.419Z,10.82
2023-04-22T07:50:35.528Z,10.07
2023-04-22T07:53:03.266Z,10.13
2023-04-22T07:55:30.630Z,10.88
2023-04-22T07:57:57.743Z,10.45
2023-04-22T08:00:24.780Z,10.60
2023-04-22T08:02:51.801Z,11.45
2023-04-22T08:05:18.817Z,10.38
2023-04-22T08:07:46.408Z,10.43
2023-04-22T08:10:13.331Z,10.77
2023-04-22T08:12:40.771Z,10.43
2023-04-22T08:15:08.047Z,9.43
2023-04-22T08:17:35.053Z,9.52
2023-04-22T08:20:02.449Z,9.02
2023-04-22T08:22:29.492Z,9.23
2023-04-22T08:24:56.416Z,9.05
2023-04-22T08:27:23.328Z,8.50
2023-04-22T08:29:50.452Z,7.90
2023-04-22T08:32:19.743Z,7.53
2023-04-22T08:37:14.222Z,7.45
2023-04-22T08:39:41.614Z,7.10
2023-04-22T08:42:09.498Z,6.88
2023-04-22T08:44:37.503Z,7.00
2023-04-22T08:47:05.429Z,6.30
2023-04-22T08:49:44.939Z,7.63
2023-04-22T08:52:23.914Z,7.70
2023-04-22T08:54:54.973Z,7.78
2023-04-22T08:57:27.545Z,9.05
2023-04-22T08:59:56.443Z,8.85
2023-04-22T09:02:24.818Z,8.43
2023-04-22T09:04:56.420Z,8.97
2023-04-22T09:07:25.533Z,8.82
2023-04-22T09:09:54.947Z,8.15
2023-04-22T09:12:22.087Z,8.20
2023-04-22T09:14:51.406Z,8.02
2023-04-22T09:17:25.979Z,6.78
2023-04-22T09:20:00.249Z,7.03
2023-04-22T09:22:28.501Z,7.47
2023-04-22T09:24:55.275Z,7.45
2023-04-22T09:27:25.247Z,8.40
2023-04-22T09:29:52.833Z,7.85
2023-04-22T09:32:19.855Z,7.55
2023-04-22T09:34:51.942Z,7.60
2023-04-22T09:37:27.395Z,7.60
2023-04-22T09:40:00.357Z,8.05
2023-04-22T09:42:27.617Z,6.97
2023-04-22T09:44:54.915Z,7.13
2023-04-22T09:47:23.704Z,6.60
2023-04-22T09:49:51.041Z,6.40
2023-04-22T09:52:27.479Z,6.35
2023-04-22T09:54:55.035Z,6.15
2023-04-22T09:57:22.548Z,5.95
2023-04-22T09:59:53.459Z,5.90
2023-04-22T10:02:29.273Z,5.97
2023-04-22T10:04:58.375Z,5.80
2023-04-22T10:07:27.756Z,6.20
2023-04-22T10:09:54.941Z,5.97
2023-04-22T10:12:32.977Z,5.82
2023-04-22T10:15:02.781Z,16.52
2023-04-22T10:17:31.970Z,22.65
2023-04-22T10:20:03.615Z,20.65
2023-04-22T10:22:34.372Z,18.85
2023-04-22T10:25:01.549Z,17.60
2023-04-22T10:27:29.346Z,15.85
2023-04-22T10:29:57.594Z,11.60
2023-04-22T10:32:26.155Z,9.68
2023-04-22T10:35:09.314Z,9.38
2023-04-22T10:37:36.584Z,9.23
2023-04-22T10:40:13.399Z,7.97
2023-04-22T10:42:41.530Z,7.30
2023-04-22T10:45:13.826Z,7.83
2023-04-22T10:47:42.083Z,8.15
2023-04-22T10:50:10.109Z,7.55
2023-04-22T10:52:37.262Z,7.88
2023-04-22T10:55:04.618Z,7.32
2023-04-22T10:57:37.810Z,7.30
2023-04-22T11:00:21.381Z,6.82
2023-04-22T11:03:12.798Z,7.10
2023-04-22T11:05:40.765Z,6.30
2023-04-22T11:08:13.278Z,6.65
2023-04-22T11:10:46.032Z,5.70
2023-04-22T11:13:15.853Z,6.38
2023-04-22T11:15:45.154Z,6.38
2023-04-22T11:18:20.853Z,6.03
2023-04-22T11:20:49.526Z,5.88
2023-04-22T11:23:27.607Z,5.70
2023-04-22T11:25:56.556Z,5.82
2023-04-22T11:28:23.458Z,5.20
2023-04-22T11:30:51.170Z,5.70
2023-04-22T11:33:18.939Z,5.65
2023-04-22T11:35:45.850Z,5.43
2023-04-22T11:38:12.743Z,6.90
2023-04-22T11:40:44.847Z,7.68
2023-04-22T11:43:13.593Z,7.68
2023-04-22T11:45:41.133Z,7.15
2023-04-22T11:48:09.745Z,7.50
2023-04-22T11:50:42.284Z,7.93
2023-04-22T11:53:25.504Z,7.43
2023-04-22T11:55:52.918Z,7.40
2023-04-22T11:58:25.286Z,7.10
2023-04-22T12:00:53.612Z,7.35
2023-04-22T12:03:28.688Z,6.70
2023-04-22T12:05:57.454Z,6.30
2023-04-22T12:08:26.792Z,6.65
2023-04-22T12:10:58.354Z,6.00
2023-04-22T12:13:30.279Z,6.15
2023-04-22T12:16:14.197Z,5.75
2023-04-22T12:19:03.750Z,6.00
2023-04-22T12:21:32.431Z,6.22
2023-04-22T12:24:05.171Z,6.10
2023-04-22T12:26:32.312Z,6.15
2023-04-22T12:29:00.652Z,6.43
2023-04-22T12:31:28.227Z,6.50
2023-04-22T12:33:56.070Z,6.88
2023-04-22T12:36:23.517Z,6.75
2023-04-22T12:38:51.517Z,6.70
2023-04-22T12:41:18.899Z,6.43
2023-04-22T12:43:46.536Z,6.35
2023-04-22T12:46:13.786Z,6.15
2023-04-22T12:48:42.939Z,6.10
2023-04-22T12:51:10.530Z,5.80
2023-04-22T12:53:37.472Z,5.65
2023-04-22T12:56:04.728Z,4.88
2023-04-22T12:58:31.849Z,5.10
2023-04-22T13:00:58.786Z,5.88
2023-04-22T13:03:26.497Z,5.88
2023-04-22T13:05:53.803Z,6.80
2023-04-22T13:08:21.326Z,7.15
2023-04-22T13:10:49.035Z,6.38
2023-04-22T13:13:19.000Z,6.40
2023-04-22T13:15:47.591Z,6.25
2023-04-22T13:18:17.198Z,6.68
2023-04-22T13:20:44.832Z,6.55
2023-04-22T13:23:13.434Z,5.32
2023-04-22T13:25:40.792Z,5.65
2023-04-22T13:28:08.405Z,5.35
2023-04-22T13:30:36.964Z,5.38
2023-04-22T13:33:04.311Z,5.27
2023-04-22T13:35:32.021Z,5.95
2023-04-22T13:37:59.241Z,5.22
2023-04-22T13:40:27.530Z,5.18
2023-04-22T13:42:55.339Z,5.67
2023-04-22T13:45:22.719Z,5.72
2023-04-22T13:47:50.233Z,5.70
2023-04-22T13:50:17.584Z,5.13
2023-04-22T13:52:44.795Z,5.47
2023-04-22T13:55:11.644Z,5.30
2023-04-22T13:57:38.448Z,5.45
2023-04-22T14:00:05.900Z,5.57
2023-04-22T14:02:39.294Z,5.30
2023-04-22T14:05:07.481Z,5.13
2023-04-22T14:07:34.431Z,5.13
2023-04-22T14:10:01.402Z,5.28
2023-04-22T14:12:28.451Z,5.70
2023-04-22T14:14:55.604Z,5.60
2023-04-22T14:17:22.904Z,5.53
2023-04-22T14:19:49.946Z,5.90
2023-04-22T14:22:16.806Z,5.53
2023-04-22T14:24:43.719Z,5.78
2023-04-22T14:27:12.425Z,5.65
2023-04-22T14:29:39.943Z,5.55
2023-04-22T14:32:07.187Z,5.70
2023-04-22T14:34:34.106Z,5.25
2023-04-22T14:37:00.893Z,5.03
2023-04-22T14:39:27.789Z,5.18
2023-04-22T14:41:55.467Z,5.50
2023-04-22T14:44:22.302Z,5.00
2023-04-22T14:46:49.483Z,5.20
2023-04-22T14:49:16.474Z,5.07
2023-04-22T14:51:43.406Z,4.72
2023-04-22T14:54:10.366Z,4.90
2023-04-22T14:56:37.362Z,5.20
2023-04-22T14:59:04.167Z,7.00
2023-04-22T15:01:32.371Z,7.13
2023-04-22T15:03:59.302Z,15.47
2023-04-22T15:06:27.549Z,19.85
2023-04-22T15:08:55.878Z,27.75
2023-04-22T15:11:23.714Z,34.35
2023-04-22T15:13:50.585Z,32.80
2023-04-22T15:16:18.157Z,39.78
2023-04-22T15:18:45.308Z,40.63
2023-04-22T15:21:12.239Z,39.58
2023-04-22T15:23:39.154Z,38.30
2023-04-22T15:26:06.378Z,35.80
2023-04-22T15:28:33.621Z,34.85
2023-04-22T15:31:01.479Z,33.47
2023-04-22T15:33:28.373Z,34.88
2023-04-22T15:35:55.413Z,28.58
2023-04-22T15:38:22.304Z,27.63
2023-04-22T15:40:49.089Z,29.63
2023-04-22T15:43:15.825Z,28.77
2023-04-22T15:45:42.679Z,27.90
2023-04-22T15:48:10.557Z,26.83
2023-04-22T15:50:38.846Z,24.98
2023-04-22T15:53:06.833Z,19.35
2023-04-22T15:55:33.596Z,21.38
2023-04-22T15:58:00.602Z,18.95
2023-04-22T16:00:27.417Z,19.38
2023-04-22T16:02:57.084Z,18.60
2023-04-22T16:05:25.070Z,18.92
2023-04-22T16:07:53.046Z,18.13
2023-04-22T16:10:20.621Z,18.02
2023-04-22T16:12:47.667Z,17.00
2023-04-22T16:15:14.783Z,17.92
2023-04-22T16:17:43.014Z,16.75
2023-04-22T16:20:10.459Z,16.00
2023-04-22T16:22:37.293Z,16.67
2023-04-22T16:25:04.616Z,15.20
2023-04-22T16:27:32.510Z,14.43
2023-04-22T16:29:59.372Z,14.65
2023-04-22T16:32:26.262Z,15.70
2023-04-22T16:34:53.135Z,15.27
2023-04-22T16:37:19.912Z,15.32
2023-04-22T16:39:46.725Z,13.32
2023-04-22T16:42:13.573Z,13.00
2023-04-22T16:44:40.521Z,13.15
2023-04-22T16:47:07.481Z,11.95
2023-04-22T16:49:34.474Z,10.93
2023-04-22T16:52:01.734Z,10.93
2023-04-22T16:54:29.504Z,11.50
2023-04-22T16:56:57.540Z,11.43
2023-04-22T16:59:24.403Z,10.32
2023-04-22T17:01:51.956Z,10.50
2023-04-22T17:04:18.977Z,9.45
2023-04-22T17:06:46.129Z,9.68
2023-04-22T17:09:12.982Z,8.73
2023-04-22T17:11:39.891Z,10.77
2023-04-22T17:14:06.617Z,9.43
2023-04-22T17:16:33.469Z,9.05
2023-04-22T17:19:00.664Z,9.32
2023-04-22T17:21:28.044Z,9.20
2023-04-22T17:23:55.165Z,8.45
2023-04-22T17:26:22.074Z,9.32
2023-04-22T17:28:49.914Z,8.70
2023-04-22T17:31:17.237Z,8.35
2023-04-22T17:33:44.206Z,8.02
2023-04-22T17:36:11.479Z,8.30
2023-04-22T17:38:38.418Z,8.05
2023-04-22T17:41:05.478Z,8.27
2023-04-22T17:43:32.323Z,8.75
2023-04-22T17:45:59.395Z,10.82
2023-04-22T17:48:26.362Z,9.02
2023-04-22T17:50:53.452Z,9.27
2023-04-22T17:53:20.671Z,8.93
2023-04-22T17:55:47.472Z,9.75
2023-04-22T17:58:14.365Z,9.07
2023-04-22T18:00:41.259Z,9.07
2023-04-22T18:03:08.290Z,8.68
2023-04-22T18:05:35.293Z,9.20
2023-04-22T18:08:02.878Z,8.80
2023-04-22T18:10:30.675Z,9.00
2023-04-22T18:12:57.736Z,9.45
2023-04-22T18:15:25.536Z,8.63
2023-04-22T18:17:52.329Z,8.93
2023-04-22T18:20:20.645Z,8.40
2023-04-22T18:22:49.228Z,8.18
2023-04-22T18:25:16.471Z,8.00
2023-04-22T18:27:43.950Z,8.35
2023-04-22T18:30:11.046Z,8.70
2023-04-22T18:32:38.043Z,8.32
2023-04-22T18:35:05.682Z,8.77
2023-04-22T18:37:34.590Z,8.30
2023-04-22T18:42:29.011Z,8.00
2023-04-22T18:44:56.014Z,7.93
2023-04-22T18:47:24.032Z,7.70
2023-04-22T18:49:51.255Z,8.73
2023-04-22T18:52:18.491Z,7.88
2023-04-22T18:54:45.470Z,8.43
2023-04-22T18:57:12.499Z,8.18
2023-04-22T18:59:39.700Z,9.20
2023-04-22T19:02:06.617Z,8.50
2023-04-22T19:04:33.603Z,8.73
2023-04-22T19:07:00.907Z,8.70
2023-04-22T19:09:27.677Z,8.63
2023-04-22T19:11:54.795Z,8.93
2023-04-22T19:14:21.623Z,9.45
2023-04-22T19:16:48.560Z,10.75
2023-04-22T19:19:16.197Z,9.75
2023-04-22T19:21:43.244Z,9.25
2023-04-22T19:24:10.081Z,9.52
2023-04-22T19:26:36.938Z,9.52
2023-04-22T19:29:03.799Z,10.10
2023-04-22T19:31:30.839Z,9.98
2023-04-22T19:33:58.118Z,10.00
2023-04-22T19:36:24.895Z,10.20
2023-04-22T19:38:51.651Z,10.38
2023-04-22T19:41:18.457Z,10.35
2023-04-22T19:43:46.108Z,10.57
2023-04-22T19:46:14.013Z,10.45
2023-04-22T19:48:41.051Z,10.45
2023-04-22T19:51:08.025Z,10.32
2023-04-22T19:53:35.590Z,10.57
2023-04-22T19:56:03.076Z,10.57
2023-04-22T19:58:30.765Z,10.68
2023-04-22T20:00:57.721Z,10.48
2023-04-22T20:03:25.080Z,10.82
2023-04-22T20:05:52.305Z,10.82
2023-04-22T20:08:19.916Z,11.40
2023-04-22T20:10:49.528Z,10.75
2023-04-22T20:13:17.512Z,10.80
2023-04-22T20:15:44.522Z,11.23
2023-04-22T20:18:11.998Z,10.98
2023-04-22T20:20:40.708Z,11.45
2023-04-22T20:23:12.668Z,12.55
2023-04-22T20:25:44.643Z,11.48
2023-04-22T20:28:11.991Z,11.93
2023-04-22T20:30:39.283Z,11.63
2023-04-22T20:33:06.392Z,11.80
2023-04-22T20:35:35.622Z,11.75
2023-04-22T20:38:03.190Z,11.57
2023-04-22T20:40:30.449Z,11.23
2023-04-22T20:42:58.690Z,11.77
2023-04-22T20:45:27.165Z,10.73
2023-04-22T20:47:54.091Z,11.73
2023-04-22T20:50:20.973Z,11.43
2023-04-22T20:52:49.042Z,11.68
2023-04-22T20:55:17.137Z,11.80
2023-04-22T20:57:44.060Z,11.25
2023-04-22T21:00:11.653Z,11.30
2023-04-22T21:02:39.704Z,11.77
2023-04-22T21:05:07.196Z,11.63
2023-04-22T21:07:35.125Z,11.30
2023-04-22T21:10:01.973Z,11.70
2023-04-22T21:12:29.061Z,12.10
2023-04-22T21:14:56.293Z,11.85
2023-04-22T21:17:25.437Z,12.00
2023-04-22T21:19:53.469Z,11.85
2023-04-22T21:22:22.067Z,11.52
2023-04-22T21:24:49.705Z,11.55
2023-04-22T21:27:17.793Z,11.55
2023-04-22T21:29:46.654Z,10.88
2023-04-22T21:32:14.036Z,11.55
2023-04-22T21:34:41.188Z,11.23
2023-04-22T21:37:08.428Z,11.80
2023-04-22T21:39:35.337Z,10.82
2023-04-22T21:42:02.885Z,10.60
2023-04-22T21:44:29.720Z,11.18
2023-04-22T21:46:56.516Z,10.98
2023-04-22T21:49:23.357Z,11.25
2023-04-22T21:51:50.396Z,11.13
2023-04-22T21:54:17.879Z,11.07
2023-04-22T21:56:44.660Z,11.10
2023-04-22T21:59:13.018Z,10.85
2023-04-22T22:01:39.801Z,11.65
2023-04-22T22:04:06.701Z,11.82
2023-04-22T22:06:33.716Z,12.02
2023-04-22T22:09:00.438Z,10.93
2023-04-22T22:11:30.965Z,11.45
2023-04-22T22:13:58.851Z,11.13
2023-04-22T22:16:25.979Z,11.80
2023-04-22T22:18:52.942Z,12.13
2023-04-22T22:21:19.853Z,12.25
2023-04-22T22:23:46.614Z,11.85
2023-04-22T22:26:13.984Z,11.60
2023-04-22T22:28:41.597Z,11.35
2023-04-22T22:31:08.430Z,11.98
2023-04-22T22:33:35.250Z,11.88
2023-04-22T22:36:02.374Z,11.25
2023-04-22T22:38:29.186Z,11.52
2023-04-22T22:40:56.175Z,11.75
2023-04-22T22:43:23.999Z,11.65
2023-04-22T22:45:50.877Z,11.95
2023-04-22T22:48:17.694Z,11.95
2023-04-22T22:50:46.416Z,12.43
2023-04-22T22:53:13.497Z,11.77
2023-04-22T22:55:40.246Z,12.48
2023-04-22T22:58:07.168Z,12.18
2023-04-22T23:00:33.928Z,12.30
2023-04-22T23:03:01.236Z,12.43
2023-04-22T23:05:28.322Z,13.32
2023-04-22T23:07:55.216Z,12.95
2023-04-22T23:10:22.106Z,12.75
2023-04-22T23:12:48.884Z,13.15
2023-04-22T23:15:15.730Z,14.13
2023-04-22T23:17:42.944Z,13.48
2023-04-22T23:20:11.095Z,14.05
2023-04-22T23:22:39.504Z,13.80
2023-04-22T23:25:07.655Z,14.60
2023-04-22T23:27:34.992Z,14.00
2023-04-22T23:30:02.339Z,15.15
2023-04-22T23:32:29.362Z,13.93
2023-04-22T23:34:58.578Z,14.55
2023-04-22T23:37:28.663Z,14.93
2023-04-22T23:39:55.538Z,15.23
2023-04-22T23:42:22.267Z,15.73
2023-04-22T23:44:49.006Z,14.65
2023-04-22T23:47:15.789Z,16.13
2023-04-22T23:49:42.698Z,15.43
2023-04-22T23:52:10.462Z,15.07
2023-04-22T23:54:37.353Z,15.07
2023-04-22T23:57:04.484Z,15.13
2023-04-22T23:59:31.612Z,15.55
